createdAt,value
2023-01-19T00:01:39.621Z,32.38
2023-01-19T00:04:07.639Z,35.85
2023-01-19T00:06:37.000Z,38.33
2023-01-19T00:09:05.056Z,40.03
2023-01-19T00:11:33.046Z,37.63
2023-01-19T00:14:01.019Z,30.67
2023-01-19T00:16:29.169Z,32.45
2023-01-19T00:18:57.184Z,31.88
2023-01-19T00:21:25.319Z,32.10
2023-01-19T00:23:54.757Z,31.33
2023-01-19T00:26:23.093Z,36.88
2023-01-19T00:28:52.971Z,27.75
2023-01-19T00:31:21.622Z,31.20
2023-01-19T00:33:52.535Z,25.85
2023-01-19T00:36:20.938Z,35.53
2023-01-19T00:38:48.923Z,33.85
2023-01-19T00:41:18.623Z,35.30
2023-01-19T00:43:45.665Z,40.55
2023-01-19T00:46:13.719Z,36.25
2023-01-19T00:48:41.758Z,36.13
2023-01-19T00:51:09.737Z,37.95
2023-01-19T00:53:37.727Z,34.33
2023-01-19T00:56:06.426Z,33.70
2023-01-19T00:58:35.761Z,33.28
2023-01-19T01:01:04.843Z,38.92
2023-01-19T01:03:33.376Z,32.30
2023-01-19T01:06:01.315Z,28.95
2023-01-19T01:08:29.806Z,29.48
2023-01-19T01:10:58.155Z,33.28
2023-01-19T01:13:27.874Z,34.47
2023-01-19T01:15:57.936Z,35.28
2023-01-19T01:18:26.249Z,32.53
2023-01-19T01:20:56.206Z,36.67
2023-01-19T01:23:24.356Z,38.67
2023-01-19T01:25:52.336Z,35.25
2023-01-19T01:28:20.346Z,28.50
2023-01-19T01:30:48.366Z,36.05
2023-01-19T01:33:41.394Z,28.35
2023-01-19T01:36:06.925Z,28.90
2023-01-19T01:38:34.887Z,31.90
2023-01-19T01:41:02.909Z,33.20
2023-01-19T01:43:44.777Z,28.80
2023-01-19T01:46:15.375Z,35.47
2023-01-19T01:48:47.479Z,32.47
2023-01-19T01:51:25.086Z,32.75
2023-01-19T01:53:57.555Z,34.65
2023-01-19T01:56:28.242Z,29.65
2023-01-19T01:58:56.288Z,35.05
2023-01-19T02:01:41.964Z,32.45
2023-01-19T02:04:11.715Z,34.83
2023-01-19T02:06:57.524Z,37.90
2023-01-19T02:09:44.197Z,28.20
2023-01-19T02:12:30.242Z,38.08
2023-01-19T02:14:58.225Z,35.38
2023-01-19T02:17:26.349Z,32.58
2023-01-19T02:19:55.691Z,35.15
2023-01-19T02:22:27.948Z,36.60
2023-01-19T02:24:58.876Z,35.95
2023-01-19T02:27:27.067Z,41.08
2023-01-19T02:29:55.084Z,33.33
2023-01-19T02:32:23.370Z,30.23
2023-01-19T02:34:51.940Z,33.67
2023-01-19T02:37:20.492Z,33.63
2023-01-19T02:39:51.957Z,38.25
2023-01-19T02:42:24.534Z,35.83
2023-01-19T02:44:54.406Z,29.67
2023-01-19T02:47:22.951Z,37.00
2023-01-19T02:49:57.790Z,32.70
2023-01-19T02:52:26.264Z,31.15
2023-01-19T02:55:02.510Z,29.15
2023-01-19T02:57:39.195Z,30.83
2023-01-19T03:00:18.712Z,33.45
2023-01-19T03:02:55.888Z,28.70
2023-01-19T03:05:36.039Z,45.42
2023-01-19T03:08:09.371Z,38.08
2023-01-19T03:10:44.213Z,42.72
2023-01-19T03:13:16.158Z,36.83
2023-01-19T03:18:14.720Z,43.75
2023-01-19T03:20:43.101Z,47.38
2023-01-19T03:23:12.721Z,39.58
2023-01-19T03:25:44.070Z,40.58
2023-01-19T03:28:15.363Z,34.90
2023-01-19T03:30:46.735Z,36.40
2023-01-19T03:33:17.559Z,40.90
2023-01-19T03:35:48.843Z,41.25
2023-01-19T03:38:18.349Z,43.33
2023-01-19T03:40:47.464Z,40.58
2023-01-19T03:43:18.335Z,38.72
2023-01-19T03:45:46.783Z,44.13
2023-01-19T03:48:14.915Z,45.03
2023-01-19T03:50:42.917Z,41.83
2023-01-19T03:53:12.772Z,42.70
2023-01-19T03:55:42.233Z,44.63
2023-01-19T03:58:10.741Z,41.08
2023-01-19T04:00:43.438Z,48.40
2023-01-19T04:03:14.510Z,37.13
2023-01-19T04:05:42.817Z,43.83
2023-01-19T04:08:11.541Z,38.55
2023-01-19T04:10:39.739Z,43.28
2023-01-19T04:13:07.753Z,36.33
2023-01-19T04:15:36.057Z,42.15
2023-01-19T04:18:07.084Z,45.75
2023-01-19T04:20:35.207Z,45.58
2023-01-19T04:23:03.852Z,39.15
2023-01-19T04:25:32.121Z,36.53
2023-01-19T04:28:00.304Z,45.58
2023-01-19T04:30:29.065Z,40.70
2023-01-19T04:32:57.101Z,52.20
2023-01-19T04:35:26.435Z,39.08
2023-01-19T04:37:54.463Z,40.30
2023-01-19T04:40:22.476Z,41.97
2023-01-19T04:42:50.975Z,42.40
2023-01-19T04:45:18.980Z,49.08
2023-01-19T04:47:46.990Z,42.15
2023-01-19T04:50:15.184Z,41.25
2023-01-19T04:52:44.472Z,42.88
2023-01-19T04:55:12.799Z,45.33
2023-01-19T04:57:40.770Z,43.78
2023-01-19T05:00:10.416Z,52.35
2023-01-19T05:02:38.515Z,43.97
2023-01-19T05:05:06.826Z,48.28
2023-01-19T05:07:35.269Z,43.60
2023-01-19T05:10:05.135Z,42.85
2023-01-19T05:12:33.154Z,49.38
2023-01-19T05:15:01.542Z,35.22
2023-01-19T05:17:30.229Z,39.63
2023-01-19T05:19:58.288Z,42.35
2023-01-19T05:22:26.322Z,46.28
2023-01-19T05:24:54.415Z,45.60
2023-01-19T05:27:23.815Z,41.00
2023-01-19T05:29:52.059Z,43.35
2023-01-19T05:32:20.084Z,43.85
2023-01-19T05:34:48.173Z,41.55
2023-01-19T05:37:16.467Z,38.53
2023-01-19T05:39:44.461Z,46.58
2023-01-19T05:42:12.670Z,43.05
2023-01-19T05:44:42.137Z,40.40
2023-01-19T05:47:10.103Z,43.22
2023-01-19T05:49:38.181Z,42.67
2023-01-19T05:52:06.185Z,48.03
2023-01-19T05:54:34.252Z,41.13
2023-01-19T05:57:03.015Z,42.97
2023-01-19T05:59:30.999Z,45.38
2023-01-19T06:02:01.093Z,45.97
2023-01-19T06:04:29.261Z,55.80
2023-01-19T06:06:57.279Z,61.53
2023-01-19T06:09:25.527Z,57.05
2023-01-19T06:11:56.502Z,56.08
2023-01-19T06:14:25.130Z,52.50
2023-01-19T06:16:53.496Z,52.28
2023-01-19T06:19:23.074Z,48.38
2023-01-19T06:21:52.600Z,44.75
2023-01-19T06:24:20.686Z,44.33
2023-01-19T06:26:48.684Z,42.70
2023-01-19T06:29:17.180Z,45.63
2023-01-19T06:31:45.252Z,42.90
2023-01-19T06:34:13.295Z,43.60
2023-01-19T06:36:42.752Z,40.17
2023-01-19T06:39:11.077Z,33.33
2023-01-19T06:41:40.017Z,37.17
2023-01-19T06:44:08.161Z,32.17
2023-01-19T06:46:36.258Z,36.03
2023-01-19T06:49:04.352Z,39.38
2023-01-19T06:51:32.314Z,32.38
2023-01-19T06:54:01.888Z,34.70
2023-01-19T06:56:30.201Z,30.45
2023-01-19T06:58:58.143Z,46.00
2023-01-19T07:01:26.881Z,33.97
2023-01-19T07:03:55.016Z,38.45
2023-01-19T07:06:23.008Z,36.28
2023-01-19T07:08:51.044Z,36.40
2023-01-19T07:11:26.290Z,41.85
2023-01-19T07:13:58.749Z,33.88
2023-01-19T07:16:26.776Z,35.53
2023-01-19T07:18:54.848Z,31.77
2023-01-19T07:21:22.989Z,39.05
2023-01-19T07:23:51.485Z,35.60
2023-01-19T07:26:21.549Z,33.60
2023-01-19T07:28:50.182Z,31.10
2023-01-19T07:31:19.019Z,36.38
2023-01-19T07:33:47.931Z,28.55
2023-01-19T07:36:16.042Z,28.08
2023-01-19T07:38:44.196Z,31.33
2023-01-19T07:41:12.381Z,29.80
2023-01-19T07:43:41.980Z,33.97
2023-01-19T07:46:10.504Z,30.38
2023-01-19T07:48:38.514Z,27.88
2023-01-19T07:54:59.232Z,28.40
2023-01-19T07:57:46.734Z,26.02
2023-01-19T08:00:35.755Z,25.17
2023-01-19T08:03:05.290Z,28.92
2023-01-19T08:05:36.273Z,23.67
2023-01-19T08:08:05.616Z,25.48
2023-01-19T08:10:34.697Z,26.52
2023-01-19T08:13:03.055Z,22.63
2023-01-19T08:15:32.316Z,27.67
2023-01-19T08:18:05.879Z,24.73
2023-01-19T08:20:34.216Z,21.48
2023-01-19T08:23:04.196Z,21.33
2023-01-19T08:31:34.829Z,26.38
2023-01-19T08:34:04.493Z,26.00
2023-01-19T08:36:34.636Z,21.65
2023-01-19T08:39:02.712Z,22.75
2023-01-19T08:41:30.697Z,17.67
2023-01-19T08:43:58.965Z,20.88
2023-01-19T08:46:27.346Z,15.80
2023-01-19T08:48:57.109Z,21.90
2023-01-19T08:51:26.972Z,18.23
2023-01-19T08:53:57.054Z,15.40
2023-01-19T08:56:25.359Z,19.30
2023-01-19T08:59:07.594Z,21.25
2023-01-19T09:01:37.049Z,17.30
2023-01-19T09:04:05.565Z,21.60
2023-01-19T09:06:35.130Z,16.80
2023-01-19T09:09:05.966Z,17.30
2023-01-19T09:11:35.003Z,17.65
2023-01-19T09:14:03.496Z,19.25
2023-01-19T09:16:31.981Z,16.70
2023-01-19T09:19:00.033Z,14.32
2023-01-19T09:21:28.910Z,17.58
2023-01-19T09:23:58.430Z,16.10
2023-01-19T09:26:27.075Z,16.05
2023-01-19T09:28:55.077Z,16.10
2023-01-19T09:31:23.710Z,16.27
2023-01-19T09:33:52.025Z,16.92
2023-01-19T09:36:20.019Z,16.48
2023-01-19T09:38:48.126Z,16.70
2023-01-19T09:41:21.851Z,15.05
2023-01-19T09:43:53.418Z,17.75
2023-01-19T09:46:24.479Z,13.43
2023-01-19T09:48:56.790Z,22.20
2023-01-19T09:51:27.927Z,12.63
2023-01-19T09:54:03.545Z,13.43
2023-01-19T09:56:33.224Z,15.15
2023-01-19T09:59:02.212Z,15.38
2023-01-19T10:01:37.598Z,14.32
2023-01-19T10:04:27.647Z,17.25
2023-01-19T10:07:01.028Z,19.73
2023-01-19T10:09:33.624Z,16.75
2023-01-19T10:12:09.610Z,14.85
2023-01-19T10:14:43.093Z,14.52
2023-01-19T10:17:20.195Z,14.93
2023-01-19T10:19:53.460Z,15.40
2023-01-19T10:22:23.153Z,13.15
2023-01-19T10:24:53.869Z,18.77
2023-01-19T10:27:25.728Z,15.73
2023-01-19T10:29:53.836Z,14.63
2023-01-19T10:32:24.487Z,15.50
2023-01-19T10:34:54.666Z,15.43
2023-01-19T10:37:30.476Z,12.25
2023-01-19T10:40:02.070Z,13.13
2023-01-19T10:42:31.798Z,15.82
2023-01-19T10:45:00.531Z,11.63
2023-01-19T10:47:33.683Z,16.83
2023-01-19T10:50:08.582Z,15.25
2023-01-19T10:52:39.899Z,15.82
2023-01-19T10:55:09.778Z,12.37
2023-01-19T10:57:43.530Z,15.85
2023-01-19T11:00:31.767Z,14.73
2023-01-19T11:03:00.580Z,16.92
2023-01-19T11:05:31.055Z,14.90
2023-01-19T11:07:59.658Z,15.80
2023-01-19T11:10:29.664Z,12.40
2023-01-19T11:13:02.502Z,14.13
2023-01-19T11:15:35.989Z,14.45
2023-01-19T11:20:43.993Z,15.18
2023-01-19T11:23:22.205Z,12.18
2023-01-19T11:25:52.570Z,14.82
2023-01-19T11:28:27.543Z,12.95
2023-01-19T11:30:58.331Z,17.30
2023-01-19T11:33:28.578Z,14.32
2023-01-19T11:36:05.346Z,14.05
2023-01-19T11:38:33.745Z,12.10
2023-01-19T11:41:04.252Z,18.95
2023-01-19T11:43:48.352Z,14.32
2023-01-19T11:46:17.564Z,13.20
2023-01-19T11:48:49.987Z,14.25
2023-01-19T11:51:20.700Z,14.35
2023-01-19T11:53:54.556Z,12.48
2023-01-19T11:56:25.038Z,11.38
2023-01-19T11:58:54.840Z,12.13
2023-01-19T12:01:29.919Z,12.02
2023-01-19T12:04:00.312Z,14.00
2023-01-19T12:06:32.569Z,14.20
2023-01-19T12:11:33.890Z,13.77
2023-01-19T12:14:04.372Z,12.80
2023-01-19T12:16:34.026Z,11.70
2023-01-19T12:19:05.615Z,12.00
2023-01-19T12:21:33.668Z,14.40
2023-01-19T12:24:08.544Z,12.23
2023-01-19T12:26:38.451Z,12.45
2023-01-19T12:29:13.186Z,12.27
2023-01-19T12:31:43.739Z,12.05
2023-01-19T12:34:38.749Z,13.75
2023-01-19T12:37:08.490Z,15.27
2023-01-19T12:39:49.419Z,13.32
2023-01-19T12:42:21.268Z,12.93
2023-01-19T12:44:54.720Z,10.77
2023-01-19T12:47:27.348Z,14.60
2023-01-19T12:49:59.672Z,13.05
2023-01-19T12:52:34.583Z,11.90
2023-01-19T12:55:08.079Z,16.70
2023-01-19T12:57:39.240Z,12.23
2023-01-19T13:00:36.712Z,13.77
2023-01-19T13:03:35.171Z,12.73
2023-01-19T13:06:03.677Z,13.15
2023-01-19T13:08:57.497Z,13.00
2023-01-19T13:11:30.316Z,11.35
2023-01-19T13:14:36.126Z,14.30
2023-01-19T13:17:24.130Z,15.85
2023-01-19T13:19:56.990Z,17.15
2023-01-19T13:22:50.645Z,13.93
2023-01-19T13:25:29.107Z,16.35
2023-01-19T13:27:57.475Z,13.63
2023-01-19T13:30:28.319Z,13.30
2023-01-19T13:33:06.532Z,12.70
2023-01-19T13:35:57.325Z,12.80
2023-01-19T13:38:28.602Z,17.83
2023-01-19T13:41:06.554Z,12.77
2023-01-19T13:43:38.261Z,15.90
2023-01-19T13:46:09.542Z,11.65
2023-01-19T13:48:39.371Z,14.88
2023-01-19T13:51:08.915Z,11.25
2023-01-19T13:53:37.364Z,12.57
2023-01-19T13:56:25.634Z,12.18
2023-01-19T13:59:12.004Z,18.30
2023-01-19T14:01:45.001Z,14.00
2023-01-19T14:04:34.318Z,15.75
2023-01-19T14:07:03.633Z,14.23
2023-01-19T14:09:33.922Z,14.65
2023-01-19T14:12:14.586Z,14.35
2023-01-19T14:14:43.488Z,13.05
2023-01-19T14:17:22.839Z,15.38
2023-01-19T14:19:53.910Z,9.18
2023-01-19T14:22:22.234Z,12.57
2023-01-19T14:24:50.242Z,11.52
2023-01-19T14:27:21.881Z,16.65
2023-01-19T14:29:53.744Z,13.00
2023-01-19T14:32:23.734Z,13.50
2023-01-19T14:34:54.717Z,14.43
2023-01-19T14:37:26.036Z,10.88
2023-01-19T14:39:58.207Z,11.93
2023-01-19T14:42:30.520Z,13.20
2023-01-19T14:45:01.473Z,15.15
2023-01-19T14:47:38.106Z,11.90
2023-01-19T14:50:26.098Z,12.85
2023-01-19T14:52:57.389Z,10.32
2023-01-19T14:55:30.421Z,12.60
2023-01-19T14:57:59.452Z,13.93
2023-01-19T15:00:31.085Z,12.38
2023-01-19T15:03:02.615Z,12.30
2023-01-19T15:05:36.371Z,13.07
2023-01-19T15:08:07.375Z,14.98
2023-01-19T15:10:36.552Z,14.18
2023-01-19T15:13:06.362Z,18.95
2023-01-19T15:15:35.834Z,15.60
2023-01-19T15:18:05.260Z,19.63
2023-01-19T15:20:34.662Z,19.02
2023-01-19T15:23:06.964Z,19.63
2023-01-19T15:25:36.199Z,16.55
2023-01-19T15:28:11.542Z,16.27
2023-01-19T15:30:40.112Z,16.88
2023-01-19T15:33:11.787Z,18.38
2023-01-19T15:35:41.703Z,16.63
2023-01-19T15:38:10.079Z,18.67
2023-01-19T15:40:38.902Z,20.67
2023-01-19T15:43:07.183Z,20.60
2023-01-19T15:45:37.224Z,21.58
2023-01-19T15:48:06.856Z,19.48
2023-01-19T15:50:37.780Z,21.20
2023-01-19T15:53:07.649Z,21.25
2023-01-19T15:55:38.570Z,22.48
2023-01-19T15:58:07.320Z,21.98
2023-01-19T16:00:39.113Z,27.65
2023-01-19T16:03:08.829Z,20.92
2023-01-19T16:05:42.902Z,23.25
2023-01-19T16:08:31.888Z,20.00
2023-01-19T16:11:05.680Z,23.63
2023-01-19T16:13:34.186Z,22.88
2023-01-19T16:16:03.844Z,25.27
2023-01-19T16:18:32.783Z,17.73
2023-01-19T16:21:01.622Z,19.80
2023-01-19T16:23:32.444Z,21.88
2023-01-19T16:26:04.905Z,21.27
2023-01-19T16:28:34.443Z,21.33
2023-01-19T16:31:06.008Z,21.67
2023-01-19T16:33:34.123Z,26.65
2023-01-19T16:36:18.862Z,24.08
2023-01-19T16:38:50.518Z,23.02
2023-01-19T16:41:19.496Z,20.88
2023-01-19T16:43:52.799Z,26.38
2023-01-19T16:46:22.733Z,22.17
2023-01-19T16:48:51.816Z,19.63
2023-01-19T16:51:20.597Z,22.33
2023-01-19T16:53:51.502Z,19.00
2023-01-19T16:56:20.296Z,22.25
2023-01-19T16:58:48.413Z,21.10
2023-01-19T17:01:20.146Z,22.42
2023-01-19T17:03:49.208Z,22.33
2023-01-19T17:06:18.531Z,18.90
2023-01-19T17:08:46.946Z,20.65
2023-01-19T17:11:21.651Z,22.73
2023-01-19T17:13:50.561Z,18.65
2023-01-19T17:16:19.008Z,23.02
2023-01-19T17:18:47.771Z,20.00
2023-01-19T17:21:19.284Z,21.55
2023-01-19T17:23:49.294Z,24.10
2023-01-19T17:26:19.679Z,22.88
2023-01-19T17:28:48.313Z,19.20
2023-01-19T17:31:18.175Z,20.50
2023-01-19T17:33:47.476Z,28.30
2023-01-19T17:36:19.337Z,17.65
2023-01-19T17:38:48.473Z,21.42
2023-01-19T17:41:19.313Z,19.67
2023-01-19T17:43:48.111Z,20.83
2023-01-19T17:46:16.220Z,19.40
2023-01-19T17:48:46.296Z,20.90
2023-01-19T17:51:15.457Z,18.75
2023-01-19T17:53:45.252Z,18.63
2023-01-19T17:56:16.675Z,18.55
2023-01-19T17:58:46.363Z,19.55
2023-01-19T18:01:18.668Z,17.27
2023-01-19T18:03:47.447Z,19.58
2023-01-19T18:06:16.099Z,16.92
2023-01-19T18:08:46.202Z,17.08
2023-01-19T18:11:14.959Z,22.48
2023-01-19T18:13:44.893Z,17.25
2023-01-19T18:16:16.057Z,20.70
2023-01-19T18:18:45.091Z,19.15
2023-01-19T18:21:15.681Z,17.27
2023-01-19T18:23:46.010Z,17.15
2023-01-19T18:26:17.954Z,22.20
2023-01-19T18:28:46.451Z,18.77
2023-01-19T18:31:18.168Z,21.50
2023-01-19T18:33:46.526Z,21.75
2023-01-19T18:36:15.013Z,21.52
2023-01-19T18:38:43.252Z,21.85
2023-01-19T18:41:12.845Z,17.05
2023-01-19T18:43:45.060Z,18.35
2023-01-19T18:46:14.125Z,19.83
2023-01-19T18:48:43.618Z,18.00
2023-01-19T18:51:17.716Z,22.30
2023-01-19T18:53:48.627Z,19.10
2023-01-19T18:56:17.329Z,24.45
2023-01-19T18:58:45.983Z,17.45
2023-01-19T19:01:20.172Z,17.83
2023-01-19T19:03:50.545Z,17.38
2023-01-19T19:06:20.867Z,18.57
2023-01-19T19:08:50.273Z,15.63
2023-01-19T19:11:19.004Z,16.23
2023-01-19T19:13:47.262Z,17.02
2023-01-19T19:16:15.875Z,20.02
2023-01-19T19:18:44.574Z,19.13
2023-01-19T19:21:14.333Z,18.85
2023-01-19T19:23:43.157Z,16.85
2023-01-19T19:26:15.800Z,16.60
2023-01-19T19:28:45.684Z,19.52
2023-01-19T19:31:15.571Z,13.55
2023-01-19T19:33:44.445Z,16.02
2023-01-19T19:36:13.848Z,17.30
2023-01-19T19:38:44.395Z,18.08
2023-01-19T19:41:13.607Z,18.73
2023-01-19T19:43:41.823Z,16.85
2023-01-19T19:46:12.367Z,18.20
2023-01-19T19:48:41.451Z,19.30
2023-01-19T19:51:17.943Z,14.30
2023-01-19T19:53:51.320Z,19.85
2023-01-19T19:56:21.966Z,16.67
2023-01-19T19:58:51.411Z,17.80
2023-01-19T20:01:21.249Z,18.73
2023-01-19T20:03:50.216Z,18.80
2023-01-19T20:06:22.639Z,19.67
2023-01-19T20:08:53.840Z,16.92
2023-01-19T20:11:24.352Z,20.92
2023-01-19T20:13:53.109Z,21.48
2023-01-19T20:16:23.232Z,19.35
2023-01-19T20:18:55.394Z,15.88
2023-01-19T20:23:55.398Z,20.10
2023-01-19T20:26:26.499Z,21.10
2023-01-19T20:28:55.225Z,16.08
2023-01-19T20:31:29.657Z,18.27
2023-01-19T20:34:00.460Z,19.35
2023-01-19T20:36:29.958Z,18.13
2023-01-19T20:39:10.132Z,19.52
2023-01-19T20:41:45.811Z,22.98
2023-01-19T20:44:16.772Z,18.40
2023-01-19T20:46:46.453Z,18.50
2023-01-19T20:49:14.926Z,17.83
2023-01-19T20:51:45.297Z,18.58
2023-01-19T20:54:17.306Z,16.35
2023-01-19T20:56:46.551Z,26.00
2023-01-19T20:59:19.204Z,14.20
2023-01-19T21:01:50.029Z,18.10
2023-01-19T21:04:18.438Z,15.38
2023-01-19T21:06:47.303Z,17.52
2023-01-19T21:09:18.675Z,16.67
2023-01-19T21:11:47.269Z,19.77
2023-01-19T21:14:16.639Z,17.60
2023-01-19T21:16:44.910Z,17.50
2023-01-19T21:19:13.504Z,27.42
2023-01-19T21:21:41.551Z,23.98
2023-01-19T21:24:11.733Z,19.05
2023-01-19T21:26:41.920Z,20.33
2023-01-19T21:29:13.493Z,20.67
2023-01-19T21:31:41.931Z,24.33
2023-01-19T21:34:11.465Z,27.20
2023-01-19T21:36:47.413Z,23.48
2023-01-19T21:39:17.347Z,28.70
2023-01-19T21:41:47.022Z,26.45
2023-01-19T21:44:15.674Z,30.02
2023-01-19T21:46:44.223Z,27.42
2023-01-19T21:49:16.056Z,29.38
2023-01-19T21:51:47.884Z,28.55
2023-01-19T21:54:17.840Z,30.13
2023-01-19T21:56:47.647Z,29.35
2023-01-19T21:59:16.616Z,29.83
2023-01-19T22:01:46.730Z,28.63
2023-01-19T22:04:14.948Z,33.45
2023-01-19T22:06:43.924Z,29.58
2023-01-19T22:09:12.007Z,34.20
2023-01-19T22:11:40.390Z,29.73
2023-01-19T22:14:11.404Z,29.05
2023-01-19T22:16:39.424Z,32.90
2023-01-19T22:19:08.544Z,36.60
2023-01-19T22:21:36.812Z,31.33
2023-01-19T22:24:06.115Z,30.63
2023-01-19T22:26:34.969Z,29.90
2023-01-19T22:29:07.032Z,29.25
2023-01-19T22:31:36.785Z,35.28
2023-01-19T22:34:05.089Z,28.02
2023-01-19T22:36:35.235Z,27.63
2023-01-19T22:39:05.483Z,29.08
2023-01-19T22:41:38.304Z,32.50
2023-01-19T22:44:08.656Z,34.70
2023-01-19T22:46:39.060Z,30.95
2023-01-19T22:49:10.030Z,31.23
2023-01-19T22:51:40.387Z,35.75
2023-01-19T22:54:09.238Z,30.67
2023-01-19T22:56:39.033Z,33.90
2023-01-19T22:59:08.005Z,36.92
2023-01-19T23:01:38.940Z,32.92
2023-01-19T23:04:08.633Z,39.90
2023-01-19T23:06:37.816Z,33.58
2023-01-19T23:09:09.084Z,31.85
2023-01-19T23:11:39.376Z,31.70
2023-01-19T23:14:09.740Z,32.10
2023-01-19T23:16:40.167Z,32.28
2023-01-19T23:19:08.349Z,32.55
2023-01-19T23:21:37.114Z,35.13
2023-01-19T23:24:06.008Z,42.45
2023-01-19T23:26:38.207Z,37.63
2023-01-19T23:29:08.378Z,30.40
2023-01-19T23:31:38.484Z,37.75
2023-01-19T23:34:09.838Z,27.67
2023-01-19T23:36:42.019Z,34.00
2023-01-19T23:39:15.146Z,36.28
2023-01-19T23:41:43.479Z,31.88
2023-01-19T23:44:12.408Z,38.92
2023-01-19T23:46:40.788Z,33.20
2023-01-19T23:49:10.257Z,30.30
2023-01-19T23:51:38.980Z,38.28
2023-01-19T23:54:07.305Z,32.33
2023-01-19T23:56:38.413Z,35.70
2023-01-19T23:59:09.553Z,37.33
